Дата Пункты Температура Давл., мм. Влажн., % Ветер Погодные явления
Воздуха Воды Направл. Скорость
20.09.14 02:00 Одесса 20.0 21.0 762 52 Ю-В 3 15 часов
20.09.14 11:00 Одесса 20.0 20.0 763 63 В 4 12 часов
20.09.14 08:00 Одесса 16.0 20.0 763 64 С 2 09 часов
20.09.14 05:00 Одесса 12.0 20.0 763 74 С-З 1 06 часов
20.09.14 02:00 Одесса 14.0 20.0 763 81 С-В 1 03 часа
19.09.14 08:00 Одесса 15.0 20.0 764 43 С-З 1 21 час
19.09.14 05:00 Одесса 20.0 20.0 763 29 Ю 1 18 часов
19.09.14 02:00 Одесса 21.0 20.0 764 36 В 2 15 часов
19.09.14 11:00 Одесса 19.0 20.0 765 41 С-В 3 12 часов
19.09.14 08:00 Одесса 15.0 20.0 765 54 С 4 09 часов
19.09.14 05:00 Одесса 11.0 21.0 764 62 С-З 2 06 часов
19.09.14 02:00 Одесса 14.0 21.0 764 58 С 2 03 часа
18.09.14 08:00 Одесса 19.0 21.0 764 46 С 4 21 час
18.09.14 05:00 Одесса 20.0 21.0 763 37 С-В 6 18 часов
18.09.14 02:00 Одесса 21.0 21.0 763 44 С-В 5 15 часов
18.09.14 11:00 Одесса 19.0 21.0 763 51 С-В 6 12 часов
18.09.14 08:00 Одесса 16.0 21.0 763 60 С-В 7 09 часов
18.09.14 05:00 Одесса 16.0 21.0 762 66 С-В 8 06 часов
18.09.14 02:00 Одесса 18.0 21.0 761 62 С-В 9 03 часа
17.09.14 08:00 Одесса 21.0 21.0 761 56 С-В 6 21 час
Количество строк
351 352 353 354
Page 351 of 354